Time;durP1;ratioP1;P1;durP2;ratioP2;P2;SDS_P1;SDS_P2;PMS_P1;PMS_P2;Temp;Humidity;BMP_temperature;BMP_pressure;BME280_temperature;BME280_humidity;BME280_pressure;Samples;Min_cycle;Max_cycle;Signal;HPM_P1;HPM_P2
2021/11/19 00:01:56;;;;;;;3.83;2.27;;;;;;;20.47;56.05;98847.81;4983965;28;20233;-64
2021/11/19 00:04:24;;;;;;;2.53;2.33;;;;;;;20.47;55.93;98858.94;5002887;28;20218;-61
2021/11/19 00:06:51;;;;;;;2.50;2.30;;;;;;;20.43;56.08;98849.31;4998274;28;20248;-64
2021/11/19 00:09:18;;;;;;;2.63;2.43;;;;;;;20.43;56.12;98841.66;4980031;28;20305;-65
2021/11/19 00:11:45;;;;;;;2.63;2.43;;;;;;;20.42;56.26;98842.47;5002803;28;20304;-64
2021/11/19 00:14:13;;;;;;;2.40;2.20;;;;;;;20.47;56.13;98848.72;4986944;28;20284;-64
2021/11/19 00:16:40;;;;;;;2.73;2.23;;;;;;;20.38;56.04;98837.13;5002037;28;20237;-64
2021/11/19 00:19:07;;;;;;;2.40;2.20;;;;;;;20.47;56.24;98851.28;4998130;28;20226;-64
2021/11/19 00:21:34;;;;;;;2.50;2.30;;;;;;;20.48;56.09;98849.56;5001651;28;20684;-64
2021/11/19 00:24:01;;;;;;;3.17;2.50;;;;;;;20.44;56.26;98847.66;5000317;28;20597;-66
2021/11/19 00:26:28;;;;;;;2.90;2.67;;;;;;;20.18;56.02;98792.63;4995106;28;20238;-64
2021/11/19 00:28:55;;;;;;;2.90;2.53;;;;;;;20.47;56.15;98852.94;4999387;28;20265;-65
2021/11/19 00:34:03;;;;;;;2.57;2.37;;;;;;;20.43;56.14;98834.00;5556138;22;20713;-64
2021/11/19 00:36:31;;;;;;;2.77;2.43;;;;;;;20.42;56.32;98827.16;4999681;28;20229;-63
2021/11/19 00:38:59;;;;;;;2.30;2.10;;;;;;;20.40;56.28;98827.88;4989831;28;20288;-64
2021/11/19 00:41:26;;;;;;;2.63;2.37;;;;;;;20.43;56.28;98815.28;5010491;28;20295;-64
2021/11/19 00:43:52;;;;;;;2.53;2.20;;;;;;;20.40;56.05;98805.75;5009026;28;20257;-64
2021/11/19 00:46:19;;;;;;;2.50;2.30;;;;;;;20.47;56.27;98817.19;4995641;28;20591;-63
2021/11/19 00:48:45;;;;;;;2.83;2.40;;;;;;;20.47;56.19;98812.06;4995378;28;20206;-63
2021/11/19 00:51:16;;;;;;;2.40;2.20;;;;;;;20.48;56.11;98816.38;5017513;28;20339;-65
2021/11/19 00:53:44;;;;;;;2.43;2.23;;;;;;;20.43;56.09;98807.63;5005391;28;20226;-65
2021/11/19 00:56:12;;;;;;;2.50;2.30;;;;;;;20.47;56.12;98825.72;4996128;28;20298;-64
2021/11/19 00:58:39;;;;;;;2.33;2.13;;;;;;;20.46;56.19;98826.50;4997132;28;20206;-64
2021/11/19 01:01:09;;;;;;;2.30;2.10;;;;;;;20.40;56.13;98808.31;5019829;28;20268;-64
2021/11/19 01:03:36;;;;;;;2.47;2.27;;;;;;;20.43;56.08;98810.16;4981275;28;20702;-63
2021/11/19 01:06:03;;;;;;;2.50;2.30;;;;;;;20.47;56.21;98825.72;5000184;28;20583;-64
2021/11/19 01:08:30;;;;;;;2.50;2.30;;;;;;;20.46;56.27;98823.09;5001687;28;20209;-64
2021/11/19 01:10:57;;;;;;;2.47;2.03;;;;;;;20.42;56.48;98813.50;5013544;28;20636;-64
2021/11/19 01:13:24;;;;;;;2.33;2.13;;;;;;;20.34;56.43;98802.88;4998629;28;20253;-64
2021/11/19 01:15:54;;;;;;;3.53;2.37;;;;;;;20.42;56.35;98821.16;4999755;28;20651;-64
2021/11/19 01:18:29;;;;;;;3.40;2.33;;;;;;;20.46;56.52;98825.66;4996241;28;20221;-65
2021/11/19 01:21:07;;;;;;;2.43;2.13;;;;;;;20.29;56.50;98799.22;4994676;28;20229;-64
2021/11/19 01:23:34;;;;;;;2.50;2.20;;;;;;;20.45;56.46;98826.44;4998915;28;20226;-64
2021/11/19 01:26:07;;;;;;;2.57;2.30;;;;;;;20.45;56.50;98834.09;5021552;28;20241;-65
2021/11/19 01:28:34;;;;;;;2.50;2.30;;;;;;;20.41;56.33;98829.63;4997965;28;20234;-64
2021/11/19 01:31:11;;;;;;;3.13;2.70;;;;;;;20.43;56.49;98843.38;5012843;28;20317;-64
2021/11/19 01:33:38;;;;;;;2.50;2.30;;;;;;;20.38;56.37;98840.56;4984575;28;20304;-65
2021/11/19 01:36:05;;;;;;;2.63;2.43;;;;;;;19.85;56.41;98755.03;4998559;28;20253;-65
2021/11/19 01:38:31;;;;;;;2.50;2.30;;;;;;;20.41;56.56;98852.59;4979504;28;20232;-64
2021/11/19 01:41:02;;;;;;;2.80;2.20;;;;;;;20.29;56.83;98832.41;4980715;28;20302;-67
2021/11/19 01:43:30;;;;;;;2.40;2.20;;;;;;;20.40;56.56;98849.16;4962252;28;20814;-63
2021/11/19 01:45:57;;;;;;;2.40;2.20;;;;;;;20.28;56.46;98835.72;4980727;28;20644;-65
2021/11/19 01:48:26;;;;;;;2.60;2.20;;;;;;;20.41;56.42;98860.25;4998319;28;20244;-64
2021/11/19 01:51:02;;;;;;;2.43;2.23;;;;;;;20.40;56.58;98855.97;4976912;28;20345;-64
2021/11/19 01:53:37;;;;;;;2.50;2.30;;;;;;;20.41;56.59;98862.81;4996067;28;20308;-65
2021/11/19 01:56:26;;;;;;;2.27;2.07;;;;;;;20.46;56.69;98874.16;4999500;28;20247;-64
2021/11/19 01:59:08;;;;;;;2.40;2.20;;;;;;;20.46;56.51;98874.16;5012595;28;20217;-66
2021/11/19 02:01:42;;;;;;;2.30;2.10;;;;;;;20.44;56.56;98868.09;4999049;28;20209;-63
2021/11/19 02:04:16;;;;;;;2.40;2.20;;;;;;;20.40;56.60;98853.41;5008957;28;20558;-64
2021/11/19 02:07:14;;;;;;;2.20;2.00;;;;;;;20.46;56.36;98854.59;4997186;28;20318;-64
2021/11/19 02:10:02;;;;;;;2.60;2.20;;;;;;;20.46;56.54;98851.19;5012158;28;20312;-65
2021/11/19 02:12:41;;;;;;;2.20;2.00;;;;;;;20.45;56.70;98857.97;5013882;28;20737;-64
2021/11/19 02:15:20;;;;;;;2.50;2.30;;;;;;;20.45;56.71;98857.97;5012925;28;20241;-64
2021/11/19 02:17:49;;;;;;;2.30;2.10;;;;;;;20.35;56.55;98839.50;4996388;28;20741;-64
2021/11/19 02:20:23;;;;;;;2.43;2.00;;;;;;;20.40;56.59;98840.63;5004717;28;20197;-62
2021/11/19 02:22:52;;;;;;;2.63;2.43;;;;;;;20.31;56.50;98825.69;4960856;28;20237;-64
2021/11/19 02:25:27;;;;;;;2.40;2.20;;;;;;;20.38;56.59;98839.66;4979406;28;20207;-65
2021/11/19 02:27:57;;;;;;;2.10;2.00;;;;;;;20.41;56.66;98845.84;4979539;28;20265;-66
2021/11/19 02:30:33;;;;;;;2.20;2.00;;;;;;;20.41;56.59;98844.94;4994039;28;20218;-64
2021/11/19 02:33:05;;;;;;;2.03;1.93;;;;;;;20.41;56.65;98850.03;4989122;28;20264;-64
2021/11/19 02:35:36;;;;;;;2.43;2.23;;;;;;;20.46;56.70;98858.84;4985089;28;20232;-64
2021/11/19 02:38:10;;;;;;;2.20;2.00;;;;;;;20.43;56.67;98851.88;5018324;28;20242;-63
2021/11/19 02:40:38;;;;;;;2.67;2.47;;;;;;;20.02;56.80;98788.31;4998995;28;20294;-63
2021/11/19 02:43:11;;;;;;;2.37;2.17;;;;;;;20.44;56.55;98860.44;4998708;28;20269;-64
2021/11/19 02:45:42;;;;;;;2.50;2.30;;;;;;;20.44;56.58;98856.22;4994353;28;20237;-64
2021/11/19 02:48:14;;;;;;;2.30;2.10;;;;;;;20.44;56.60;98847.66;5000167;28;20230;-64
2021/11/19 02:50:41;;;;;;;2.93;2.30;;;;;;;20.44;56.60;98851.09;5009800;28;20235;-63
2021/11/19 02:53:08;;;;;;;2.40;2.20;;;;;;;20.44;56.70;98842.56;4995627;28;20317;-64
2021/11/19 02:55:37;;;;;;;2.37;2.17;;;;;;;20.43;56.63;98841.66;5014570;28;20202;-64
2021/11/19 02:58:05;;;;;;;2.40;2.20;;;;;;;20.43;56.61;98846.78;4994924;28;20209;-65
2021/11/19 03:00:46;;;;;;;2.60;2.40;;;;;;;20.44;56.70;98846.00;4995834;28;20197;-64
2021/11/19 03:03:13;;;;;;;2.90;2.60;;;;;;;20.40;56.65;98835.53;4987609;28;20228;-65
2021/11/19 03:05:39;;;;;;;2.40;2.20;;;;;;;20.45;56.72;98834.09;4984577;28;20587;-63
2021/11/19 03:08:06;;;;;;;2.40;2.20;;;;;;;20.44;57.13;98840.00;5014494;28;20205;-64
2021/11/19 03:10:40;;;;;;;3.03;2.20;;;;;;;20.40;56.82;98840.63;5014182;28;20220;-64
2021/11/19 03:13:07;;;;;;;2.40;2.20;;;;;;;20.44;56.76;98850.22;4997084;28;20257;-64
2021/11/19 03:15:38;;;;;;;2.90;2.27;;;;;;;20.23;56.68;98811.63;4999240;28;20662;-64
2021/11/19 03:18:05;;;;;;;1.97;1.87;;;;;;;20.44;56.75;98840.00;4995498;28;20297;-64
2021/11/19 03:20:32;;;;;;;2.47;2.27;;;;;;;20.42;56.77;98839.91;5000487;28;20225;-65
2021/11/19 03:22:59;;;;;;;2.10;2.00;;;;;;;20.44;56.58;98840.00;4995206;28;20264;-65
2021/11/19 03:25:31;;;;;;;2.20;2.00;;;;;;;20.44;56.80;98843.44;4985935;28;20229;-62
2021/11/19 03:27:57;;;;;;;2.40;2.20;;;;;;;20.40;56.69;98827.88;4995013;28;20233;-64
2021/11/19 03:30:25;;;;;;;2.40;2.20;;;;;;;20.27;56.75;98802.44;4986790;28;20317;-66
2021/11/19 03:32:52;;;;;;;2.30;2.17;;;;;;;20.44;56.72;98819.56;4974959;28;20656;-64
2021/11/19 03:35:19;;;;;;;2.50;2.30;;;;;;;20.02;56.73;98740.63;5003129;28;20201;-65
2021/11/19 03:37:50;;;;;;;2.43;2.23;;;;;;;20.43;56.79;98803.34;5000421;28;20210;-64
2021/11/19 03:40:19;;;;;;;2.50;2.30;;;;;;;20.44;56.85;98825.56;5015651;28;20233;-63
2021/11/19 03:42:46;;;;;;;2.33;2.13;;;;;;;20.45;56.67;98822.22;5014248;28;20663;-64
2021/11/19 03:45:23;;;;;;;2.70;2.50;;;;;;;20.44;56.79;98820.47;4998380;28;20229;-64
2021/11/19 03:47:51;;;;;;;2.40;2.20;;;;;;;20.28;56.74;98789.78;4997339;28;21005;-64
2021/11/19 03:50:31;;;;;;;3.63;2.20;;;;;;;20.44;56.76;98809.34;4998272;28;20214;-64
2021/11/19 03:52:58;;;;;;;2.37;2.20;;;;;;;20.43;56.47;98805.06;5015760;28;20256;-64
2021/11/19 03:55:30;;;;;;;2.43;2.23;;;;;;;20.44;56.86;98810.25;4994509;28;20209;-64
2021/11/19 03:57:57;;;;;;;2.30;2.10;;;;;;;20.45;56.66;98812.00;4996038;28;20621;-64
2021/11/19 04:00:27;;;;;;;2.57;2.37;;;;;;;20.41;56.82;98811.75;5000192;28;20277;-64
2021/11/19 04:02:54;;;;;;;2.20;2.00;;;;;;;20.44;56.77;98810.25;4995196;28;20259;-66
2021/11/19 04:05:21;;;;;;;2.00;1.90;;;;;;;20.43;56.78;98805.91;4991786;28;20282;-65
2021/11/19 04:07:47;;;;;;;2.13;1.93;;;;;;;20.44;56.89;98815.34;5017052;28;20296;-64
2021/11/19 04:10:14;;;;;;;2.37;2.10;;;;;;;20.44;56.82;98817.91;5009611;28;20303;-65
2021/11/19 04:12:41;;;;;;;2.20;2.00;;;;;;;20.40;56.77;98818.53;5007947;28;20298;-65
2021/11/19 04:15:11;;;;;;;2.20;2.00;;;;;;;20.27;56.79;98802.44;5014617;28;20289;-64
2021/11/19 04:17:37;;;;;;;2.80;2.50;;;;;;;20.44;56.72;98832.34;4984033;28;20296;-63
2021/11/19 04:20:04;;;;;;;2.47;2.27;;;;;;;20.45;56.87;98828.97;5015297;28;20237;-64
2021/11/19 04:22:31;;;;;;;2.23;2.03;;;;;;;20.40;56.92;98812.56;4994281;28;20203;-65
2021/11/19 04:25:00;;;;;;;2.40;2.17;;;;;;;20.44;56.84;98820.47;4999831;28;20583;-64
2021/11/19 04:27:27;;;;;;;2.07;1.97;;;;;;;20.43;56.79;98823.78;4996730;28;20260;-62
2021/11/19 04:29:54;;;;;;;2.53;2.33;;;;;;;20.41;56.73;98822.84;4995671;28;20305;-64
2021/11/19 04:32:24;;;;;;;2.50;2.30;;;;;;;20.40;56.79;98813.41;5004470;28;20202;-64
2021/11/19 04:34:52;;;;;;;2.40;2.20;;;;;;;20.43;56.74;98818.69;4997236;28;20260;-63
2021/11/19 04:37:19;;;;;;;2.43;2.23;;;;;;;20.43;56.85;98808.47;5003609;28;20311;-64
2021/11/19 04:39:45;;;;;;;2.23;2.03;;;;;;;20.43;56.72;98807.63;4998051;28;20661;-64
2021/11/19 04:42:12;;;;;;;2.67;2.20;;;;;;;20.44;56.76;98811.91;4996312;28;20285;-63
2021/11/19 04:44:39;;;;;;;2.27;2.07;;;;;;;20.44;56.68;98809.34;5017674;28;20794;-64
2021/11/19 04:47:06;;;;;;;2.17;2.07;;;;;;;20.29;56.69;98777.91;4999881;28;20578;-65
2021/11/19 04:49:34;;;;;;;3.37;2.20;;;;;;;20.44;56.96;98794.94;5001581;28;20202;-64
2021/11/19 04:52:03;;;;;;;2.20;2.10;;;;;;;20.44;56.88;98796.59;4999006;28;20711;-64
2021/11/19 04:54:30;;;;;;;1.90;1.80;;;;;;;20.43;56.27;98789.75;5003681;28;20266;-64
2021/11/19 04:56:57;;;;;;;2.20;2.00;;;;;;;20.44;56.86;98788.94;5014251;28;20234;-64
2021/11/19 04:59:24;;;;;;;1.80;1.70;;;;;;;20.40;56.88;98787.88;4986392;28;20233;-65
2021/11/19 05:01:54;;;;;;;2.30;2.10;;;;;;;20.42;56.77;98796.50;4978098;28;20238;-63
2021/11/19 05:04:22;;;;;;;2.30;2.10;;;;;;;20.44;56.90;98802.59;4998281;28;20595;-64
2021/11/19 05:06:49;;;;;;;2.10;2.00;;;;;;;20.38;56.74;98794.59;5016164;28;20210;-64
2021/11/19 05:09:16;;;;;;;2.40;2.20;;;;;;;20.33;56.97;98779.81;5000033;28;20246;-64
2021/11/19 05:12:03;;;;;;;2.40;2.20;;;;;;;20.46;56.71;98810.31;5001161;28;20317;-64
2021/11/19 05:14:30;;;;;;;3.00;2.10;;;;;;;20.45;56.95;98801.78;5006457;28;20250;-63
2021/11/19 05:16:56;;;;;;;1.83;1.73;;;;;;;20.43;56.48;98802.50;4999284;28;20233;-64
2021/11/19 05:19:23;;;;;;;2.50;2.30;;;;;;;20.42;56.88;98800.72;4998553;28;20313;-63
2021/11/19 05:21:49;;;;;;;2.47;2.27;;;;;;;20.41;56.79;98811.75;5014946;28;20202;-64
2021/11/19 05:24:16;;;;;;;2.43;2.13;;;;;;;20.40;56.81;98813.41;4998383;28;20260;-63
2021/11/19 05:26:44;;;;;;;2.20;2.10;;;;;;;20.46;56.79;98818.00;5000689;28;20241;-66
2021/11/19 05:29:11;;;;;;;2.30;2.10;;;;;;;20.46;56.82;98823.09;5001491;28;20264;-64
2021/11/19 05:31:38;;;;;;;2.90;2.57;;;;;;;20.43;56.92;98817.81;5002759;28;20363;-64
2021/11/19 05:34:08;;;;;;;2.50;2.30;;;;;;;20.38;56.94;98816.69;5001150;28;20229;-63
2021/11/19 05:36:34;;;;;;;3.13;2.33;;;;;;;20.40;56.72;98807.44;4968910;28;20687;-63
2021/11/19 05:39:01;;;;;;;2.40;2.20;;;;;;;20.47;56.66;98815.53;4997666;28;20202;-64
2021/11/19 05:41:31;;;;;;;2.57;2.37;;;;;;;20.44;56.78;98815.34;5005005;28;20587;-65
2021/11/19 05:43:57;;;;;;;2.20;2.03;;;;;;;20.47;56.56;98820.63;4995596;28;20313;-64
2021/11/19 05:46:26;;;;;;;2.43;2.23;;;;;;;20.48;56.77;98821.47;4997631;28;20206;-64
2021/11/19 05:48:55;;;;;;;2.50;2.30;;;;;;;20.39;56.90;98816.78;4979502;28;20255;-66
2021/11/19 05:51:22;;;;;;;2.37;2.17;;;;;;;20.34;56.82;98805.41;5001032;28;20253;-64
2021/11/19 05:53:49;;;;;;;2.47;2.27;;;;;;;20.46;56.91;98831.63;4980228;28;20939;-64
2021/11/19 05:56:16;;;;;;;2.37;2.17;;;;;;;20.41;56.99;98822.84;5015926;28;20306;-64
2021/11/19 05:58:43;;;;;;;2.70;2.50;;;;;;;20.42;56.83;98833.91;4994411;28;20230;-66
2021/11/19 06:01:12;;;;;;;2.40;2.20;;;;;;;20.43;56.80;98833.16;4978726;28;20659;-62
2021/11/19 06:03:40;;;;;;;2.30;2.10;;;;;;;20.34;56.99;98810.53;5001767;28;20980;-60
2021/11/19 06:06:09;;;;;;;3.43;2.30;;;;;;;20.38;56.79;98819.25;4999777;28;20205;-63
2021/11/19 06:08:37;;;;;;;4.13;2.40;;;;;;;20.48;56.72;98844.47;5002099;28;20201;-64
2021/11/19 06:11:10;;;;;;;2.83;2.40;;;;;;;20.48;56.99;98845.34;4995819;28;20749;-66
2021/11/19 06:13:44;;;;;;;2.80;2.60;;;;;;;20.48;56.93;98847.03;4986278;28;20331;-64
2021/11/19 06:16:15;;;;;;;3.10;2.60;;;;;;;20.44;56.98;98833.22;4996859;28;20290;-63
2021/11/19 06:18:45;;;;;;;5.13;2.30;;;;;;;20.43;56.72;98831.44;4984046;28;20587;-65
2021/11/19 06:21:16;;;;;;;3.03;2.10;;;;;;;20.44;56.71;98842.56;4986368;28;20202;-64
2021/11/19 06:23:45;;;;;;;3.07;2.23;;;;;;;20.49;56.74;98836.03;4968029;28;20221;-63
2021/11/19 06:26:13;;;;;;;5.33;4.60;;;;;;;20.48;55.01;98839.34;4999274;28;20202;-64
2021/11/19 06:28:42;;;;;;;7.13;6.40;;;;;;;20.46;52.81;98839.28;4995879;28;20641;-65
2021/11/19 06:31:09;;;;;;;8.17;7.37;;;;;;;20.28;50.91;98812.75;5020726;28;20376;-63
2021/11/19 06:33:36;;;;;;;9.10;8.10;;;;;;;20.39;49.90;98832.09;4999377;28;20260;-63
2021/11/19 06:36:04;;;;;;;9.53;8.03;;;;;;;20.42;48.85;98839.03;5000535;28;20245;-65
2021/11/19 06:38:31;;;;;;;9.07;8.17;;;;;;;20.40;48.16;98841.50;4998725;28;20289;-63
2021/11/19 06:40:57;;;;;;;10.10;9.00;;;;;;;20.39;47.58;98838.84;5013317;28;20235;-65
2021/11/19 06:43:24;;;;;;;9.53;8.63;;;;;;;20.38;47.69;98837.13;5015205;28;20253;-64
2021/11/19 06:45:50;;;;;;;10.73;8.57;;;;;;;20.29;47.92;98827.28;5008853;28;20226;-64
2021/11/19 06:48:22;;;;;;;12.60;8.80;;;;;;;20.24;48.34;98831.25;5026568;23;20264;-66
2021/11/19 06:50:49;;;;;;;9.33;8.37;;;;;;;20.35;48.81;98849.72;5006910;28;21975;-66
2021/11/19 06:53:18;;;;;;;10.30;8.70;;;;;;;20.30;49.23;98846.91;5020201;28;20825;-66
2021/11/19 06:55:44;;;;;;;9.40;8.40;;;;;;;20.22;49.45;98837.94;5012984;28;20294;-68
2021/11/19 06:58:11;;;;;;;8.70;7.80;;;;;;;20.30;49.99;98853.69;5006294;28;20318;-67
2021/11/19 07:00:42;;;;;;;8.80;7.87;;;;;;;20.33;50.23;98862.41;5007075;28;20244;-67
2021/11/19 07:03:09;;;;;;;9.20;7.20;;;;;;;20.33;50.72;98864.94;5011174;28;20201;-66
2021/11/19 07:05:35;;;;;;;10.80;7.73;;;;;;;20.34;51.23;98864.16;5010519;28;20320;-66
2021/11/19 07:08:03;;;;;;;9.93;7.30;;;;;;;20.34;51.63;98871.81;5007341;28;20230;-67
2021/11/19 07:10:29;;;;;;;10.40;7.47;;;;;;;20.35;51.80;98877.81;5014725;28;21018;-66
2021/11/19 07:12:56;;;;;;;8.30;7.50;;;;;;;20.35;52.27;98880.34;5009192;28;20230;-66
2021/11/19 07:15:23;;;;;;;7.53;6.23;;;;;;;20.35;52.23;98876.13;5019685;28;20293;-69
2021/11/19 07:17:50;;;;;;;8.40;6.50;;;;;;;20.36;52.72;98880.44;5015275;28;21942;-66
2021/11/19 07:20:19;;;;;;;7.00;6.03;;;;;;;19.75;52.67;98778.28;4991563;28;20264;-66
2021/11/19 07:22:45;;;;;;;6.90;6.20;;;;;;;20.32;52.90;98869.97;5006791;28;20237;-65
2021/11/19 07:25:15;;;;;;;8.30;5.80;;;;;;;20.36;52.87;98888.09;5013086;28;20206;-66
2021/11/19 07:27:42;;;;;;;6.10;5.50;;;;;;;20.37;53.04;98882.19;5018134;28;20264;-67
2021/11/19 07:30:11;;;;;;;6.27;5.67;;;;;;;20.38;53.01;98898.41;5017021;28;20205;-66
2021/11/19 07:32:37;;;;;;;7.70;6.50;;;;;;;20.34;52.88;98883.72;5011378;28;20317;-65
2021/11/19 07:35:04;;;;;;;8.87;7.90;;;;;;;20.38;50.03;98888.19;5019693;28;20694;-65
2021/11/19 07:37:31;;;;;;;9.93;7.70;;;;;;;20.37;49.66;98889.00;5006873;28;20253;-67
2021/11/19 07:39:58;;;;;;;8.20;7.07;;;;;;;20.28;50.25;98874.03;5010125;28;20300;-68
2021/11/19 07:42:25;;;;;;;8.43;7.13;;;;;;;20.35;50.87;98883.81;5009367;28;20197;-66
2021/11/19 07:44:52;;;;;;;8.90;6.57;;;;;;;20.36;51.14;98884.66;5000885;28;20217;-66
2021/11/19 07:47:18;;;;;;;11.87;7.07;;;;;;;20.37;51.32;98883.88;5005235;28;20226;-66
2021/11/19 07:49:45;;;;;;;7.33;6.63;;;;;;;20.37;51.94;98877.06;5016397;28;20234;-66
2021/11/19 07:52:11;;;;;;;8.33;6.20;;;;;;;20.36;52.04;98890.66;5003035;28;20257;-68
2021/11/19 07:54:38;;;;;;;7.37;6.63;;;;;;;20.32;52.25;98873.41;5011184;28;20288;-68
2021/11/19 07:57:05;;;;;;;6.60;5.90;;;;;;;20.36;52.28;98888.09;5007744;28;20287;-66
2021/11/19 07:59:33;;;;;;;6.47;5.57;;;;;;;20.37;52.44;98883.88;5007628;28;20720;-68
2021/11/19 08:02:00;;;;;;;9.47;7.70;;;;;;;20.36;50.90;98879.53;5007314;28;20206;-68
2021/11/19 08:04:30;;;;;;;12.23;7.27;;;;;;;20.36;50.88;98890.66;5022089;28;20228;-68
2021/11/19 08:06:56;;;;;;;7.00;6.23;;;;;;;20.36;51.13;98889.75;5014015;28;20245;-68
2021/11/19 08:09:24;;;;;;;7.40;6.70;;;;;;;20.29;51.51;98887.69;5016604;28;20518;-65
2021/11/19 08:11:50;;;;;;;6.60;6.00;;;;;;;20.35;51.86;98894.00;5020112;28;20655;-66
2021/11/19 08:14:17;;;;;;;9.93;6.80;;;;;;;20.36;51.85;98897.41;5013903;28;21588;-66
2021/11/19 08:16:46;;;;;;;6.73;6.03;;;;;;;20.32;51.97;98893.84;5016940;28;20206;-66
2021/11/19 08:19:24;;;;;;;6.70;6.00;;;;;;;20.35;52.11;98906.78;5017118;28;20232;-66
2021/11/19 08:21:51;;;;;;;7.23;5.90;;;;;;;20.36;52.36;98910.19;5013766;28;20230;-66
2021/11/19 08:24:18;;;;;;;6.77;5.67;;;;;;;20.31;52.29;98897.16;5019157;28;20289;-68
2021/11/19 08:26:48;;;;;;;6.33;5.70;;;;;;;20.32;52.63;98893.84;5012014;28;20244;-65
2021/11/19 08:29:22;;;;;;;6.07;5.47;;;;;;;20.36;52.63;98907.63;5016861;28;20669;-66
2021/11/19 08:31:49;;;;;;;5.90;5.30;;;;;;;20.34;52.70;98891.38;5010421;28;20329;-65
2021/11/19 08:34:16;;;;;;;5.60;5.07;;;;;;;20.35;52.84;98895.66;5011841;28;20470;-69
2021/11/19 08:36:43;;;;;;;6.20;5.53;;;;;;;20.35;52.81;98899.13;5018715;28;20236;-68
2021/11/19 08:39:10;;;;;;;6.27;4.80;;;;;;;20.29;52.93;98893.66;5020802;28;20222;-63
2021/11/19 08:41:37;;;;;;;5.47;4.60;;;;;;;20.35;53.16;98895.66;5016818;28;20372;-66
2021/11/19 08:44:06;;;;;;;5.63;5.10;;;;;;;20.36;53.25;98903.41;5013819;28;20646;-67
2021/11/19 08:46:36;;;;;;;5.50;4.80;;;;;;;20.23;53.19;98875.47;5014872;28;20220;-66
2021/11/19 08:49:05;;;;;;;5.47;4.97;;;;;;;20.35;53.23;98903.34;5032037;28;20257;-66
2021/11/19 08:51:31;;;;;;;4.97;4.47;;;;;;;20.36;53.42;98899.97;5020186;28;20245;-65
2021/11/19 08:54:01;;;;;;;5.13;4.47;;;;;;;20.33;53.27;98897.25;5013926;28;20234;-67
2021/11/19 08:56:36;;;;;;;5.30;4.80;;;;;;;20.32;53.44;98900.59;5015902;28;20205;-69
2021/11/19 08:59:03;;;;;;;5.20;4.70;;;;;;;20.37;53.39;98906.88;5014707;28;20246;-65
2021/11/19 09:01:30;;;;;;;4.97;4.47;;;;;;;20.36;53.31;98899.97;5020863;28;20203;-68
2021/11/19 09:03:56;;;;;;;5.10;4.60;;;;;;;20.35;53.56;98901.66;5012510;28;20757;-66
2021/11/19 09:06:23;;;;;;;4.53;4.13;;;;;;;20.37;53.71;98901.75;5010836;28;20287;-67
2021/11/19 09:08:50;;;;;;;6.93;4.40;;;;;;;20.37;53.49;98901.75;5012643;28;20654;-68
2021/11/19 09:11:20;;;;;;;4.40;4.00;;;;;;;20.05;53.60;98846.31;5014665;28;20228;-69
2021/11/19 09:13:48;;;;;;;4.63;4.23;;;;;;;19.65;53.73;98789.63;5006298;28;20245;-67
2021/11/19 09:16:15;;;;;;;4.27;3.87;;;;;;;20.38;53.75;98903.50;5012206;28;20272;-68
2021/11/19 09:19:12;;;;;;;4.10;3.70;;;;;;;20.30;53.70;98897.97;5013851;28;20230;-69
2021/11/19 09:21:54;;;;;;;4.43;4.03;;;;;;;20.30;53.81;98887.75;5009613;28;20285;-68
2021/11/19 09:24:28;;;;;;;4.37;3.97;;;;;;;20.33;53.70;98884.47;5018566;28;20194;-67
2021/11/19 09:27:10;;;;;;;4.30;3.90;;;;;;;20.38;53.75;98900.94;5011764;28;20194;-67
2021/11/19 09:30:00;;;;;;;4.57;3.90;;;;;;;20.38;53.74;98901.84;5013775;28;20598;-67
2021/11/19 09:32:26;;;;;;;4.23;3.83;;;;;;;20.38;53.96;98898.41;5013790;28;20305;-68
2021/11/19 09:34:55;;;;;;;4.03;3.73;;;;;;;20.39;53.76;98895.03;5016731;28;20237;-67
2021/11/19 09:37:24;;;;;;;4.47;4.07;;;;;;;20.33;53.90;98885.38;5011771;28;20228;-66
2021/11/19 09:39:51;;;;;;;4.80;4.03;;;;;;;20.39;53.84;98897.59;5018206;28;20222;-66
2021/11/19 09:43:01;;;;;;;3.93;3.60;;;;;;;20.16;54.21;98858.03;5020771;28;20248;-68
2021/11/19 09:45:50;;;;;;;3.77;3.40;;;;;;;20.38;53.92;98900.94;5009530;28;20242;-67
2021/11/19 09:48:52;;;;;;;3.77;3.47;;;;;;;20.38;53.88;98898.41;5016576;28;20601;-67
2021/11/19 09:51:37;;;;;;;4.20;3.80;;;;;;;20.38;53.84;98903.50;5005408;28;20658;-68
2021/11/19 09:54:14;;;;;;;3.60;3.30;;;;;;;20.37;53.95;98904.31;5004260;28;20256;-66
2021/11/19 09:57:05;;;;;;;4.27;3.50;;;;;;;20.38;53.89;98895.84;5002110;28;20234;-72
2021/11/19 09:59:37;;;;;;;3.60;3.30;;;;;;;20.38;54.01;98893.28;5009100;28;20321;-65
2021/11/19 10:02:42;;;;;;;3.57;2.90;;;;;;;20.33;54.17;98879.38;5002132;28;20194;-67
2021/11/19 10:05:29;;;;;;;3.73;3.43;;;;;;;20.37;54.15;98889.84;5006466;28;20285;-66
2021/11/19 10:08:15;;;;;;;3.47;3.17;;;;;;;20.37;53.80;98887.28;5008774;28;20229;-67
2021/11/19 10:10:51;;;;;;;3.40;3.10;;;;;;;20.37;53.92;98897.50;5000258;28;20203;-66
2021/11/19 10:13:34;;;;;;;3.47;3.10;;;;;;;20.38;53.91;98885.63;5007363;28;20245;-66
2021/11/19 10:16:13;;;;;;;3.67;3.37;;;;;;;20.38;54.12;98878.84;4990667;28;20289;-66
2021/11/19 10:18:58;;;;;;;3.47;3.17;;;;;;;20.40;54.01;98863.63;5006385;28;20249;-66
2021/11/19 10:21:27;;;;;;;3.87;3.40;;;;;;;20.32;53.85;98845.34;4996704;28;20618;-67
2021/11/19 10:24:35;;;;;;;3.30;3.00;;;;;;;20.41;54.07;98858.59;4994927;28;20661;-66
2021/11/19 10:27:03;;;;;;;4.00;3.30;;;;;;;20.33;53.88;98839.41;5006822;28;20226;-68
2021/11/19 10:29:34;;;;;;;3.50;3.20;;;;;;;20.42;54.10;98847.59;4994403;28;20241;-64
2021/11/19 10:32:01;;;;;;;3.90;3.20;;;;;;;20.38;54.08;98840.56;5020717;28;20254;-70
2021/11/19 10:34:48;;;;;;;3.07;2.77;;;;;;;20.44;54.17;98855.31;5015721;28;20618;-69
2021/11/19 10:37:32;;;;;;;3.27;2.90;;;;;;;20.43;54.15;98851.88;5013614;28;20641;-67
2021/11/19 10:40:34;;;;;;;3.10;2.90;;;;;;;20.45;54.21;98859.63;5001697;28;20305;-67
2021/11/19 10:43:45;;;;;;;3.40;3.10;;;;;;;20.44;54.09;98863.88;5010137;28;20260;-68
2021/11/19 10:46:27;;;;;;;3.33;3.03;;;;;;;20.46;54.15;98866.50;4970579;28;20237;-68
2021/11/19 10:49:06;;;;;;;3.67;3.23;;;;;;;20.46;54.01;98851.19;4991202;28;20769;-68
2021/11/19 10:52:10;;;;;;;3.73;3.30;;;;;;;20.46;54.02;98852.03;5018729;28;20199;-66
2021/11/19 10:54:43;;;;;;;3.40;3.03;;;;;;;20.46;54.06;98846.09;5016313;28;20205;-69
2021/11/19 10:57:31;;;;;;;3.63;3.30;;;;;;;20.46;53.93;98836.72;5015989;28;20233;-68
2021/11/19 11:00:18;;;;;;;3.53;3.23;;;;;;;20.47;53.99;98832.50;5014357;28;20312;-69
2021/11/19 11:02:59;;;;;;;4.57;3.20;;;;;;;20.47;53.99;98827.41;4986732;28;20229;-67
2021/11/19 11:05:30;;;;;;;3.27;2.97;;;;;;;20.37;53.93;98820.91;5015202;28;20197;-69
2021/11/19 11:08:12;;;;;;;4.07;3.23;;;;;;;20.46;53.90;98838.41;5017764;28;20206;-66
2021/11/19 11:10:45;;;;;;;3.50;3.20;;;;;;;20.36;53.60;98818.28;5016592;28;20245;-66
2021/11/19 11:13:23;;;;;;;4.10;3.23;;;;;;;20.46;53.67;98840.97;5014007;28;20250;-68
2021/11/19 11:16:24;;;;;;;3.30;3.00;;;;;;;20.37;53.84;98805.59;5008818;28;20765;-69
2021/11/19 11:18:51;;;;;;;3.63;3.30;;;;;;;20.48;53.95;98826.59;4967017;28;20237;-66
2021/11/19 11:21:23;;;;;;;3.57;3.10;;;;;;;20.47;53.94;98823.19;5002741;28;20397;-69
2021/11/19 11:24:10;;;;;;;4.30;3.83;;;;;;;20.47;53.83;98820.63;5005015;28;20810;-66
2021/11/19 11:26:50;;;;;;;8.10;5.07;;;;;;;20.47;53.33;98815.53;5005470;28;20234;-67
2021/11/19 11:29:17;;;;;;;5.20;4.63;;;;;;;20.47;53.08;98812.06;5003112;28;20312;-67
2021/11/19 11:32:11;;;;;;;5.13;4.47;;;;;;;20.47;53.30;98809.53;5009211;28;20210;-66
2021/11/19 11:34:44;;;;;;;5.37;4.20;;;;;;;20.47;53.77;98805.31;5016038;28;20201;-66
2021/11/19 11:37:16;;;;;;;6.03;4.37;;;;;;;20.47;53.59;98810.41;5020685;28;20202;-69
2021/11/19 11:39:56;;;;;;;4.80;4.27;;;;;;;20.10;53.82;98737.69;5012567;28;20217;-66
2021/11/19 11:42:32;;;;;;;4.37;3.97;;;;;;;20.42;53.88;98783.75;5012078;28;20222;-66
2021/11/19 11:45:00;;;;;;;5.03;4.03;;;;;;;20.48;53.79;98808.72;5012943;28;20233;-66
2021/11/19 11:47:36;;;;;;;4.83;4.37;;;;;;;20.48;53.89;98808.72;5007685;28;20202;-66
2021/11/19 11:50:34;;;;;;;5.00;3.97;;;;;;;19.63;53.76;98655.19;5013985;28;20758;-66
2021/11/19 11:53:21;;;;;;;5.27;4.00;;;;;;;20.48;54.00;98811.28;4997168;28;20648;-66
2021/11/19 11:56:25;;;;;;;4.27;3.87;;;;;;;20.47;53.89;98807.84;5011324;28;20656;-69
2021/11/19 11:59:11;;;;;;;5.43;4.03;;;;;;;20.48;54.00;98809.59;5006280;28;20590;-65